Latest Weather Observations for Little Bay

IDN60901

Issued at 10:01 pm EST Wednesday 24 August 2016 (issued every 10 minutes, with the page automatically refreshed every 10 minutes)

About weather observations | Map of Sydney area stations | Latest observations for Sydney area | Other Formats
Station Details ID: 066051 Name: LITTLE BAY (THE COAST GOLF CLUB) Lat: -33.98 Lon: 151.25 Height: 22.0 m
Data from the previous 72 hours. | See also: Recent months for locations in New South Wales
Date/Time
EST
Temp
°C
App
Temp
°C
Dew
Point
°C
Rel
Hum
%
Delta-T
°C
Wind Press
QNH
hPa
Press
MSL
hPa
Rain since
9am
mm
Dir  Spd
km/h
Gust
km/h
Spd
kts
Gust
kts
24/10:00pm - - - - - S 30 41 16 22 - - -
24/09:30pm - - - - - S 35 46 19 25 - - -
24/09:02pm - - - - - S 39 57 21 31 - - -
24/09:00pm - - - - - S 43 57 23 31 - - -
24/08:30pm - - - - - S 41 52 22 28 - - -
24/08:09pm - - - - - S 43 61 23 33 - - -
24/08:00pm - - - - - S 44 57 24 31 - - -
24/07:30pm - - - - - SSE 44 57 24 31 - - -
24/07:00pm - - - - - SSE 35 46 19 25 - - -
24/06:47pm - - - - - SSE 28 43 15 23 - - -
24/06:30pm - - - - - SE 19 24 10 13 - - -
24/06:00pm - - - - - ESE 33 44 18 24 - - -
24/05:30pm - - - - - ESE 33 43 18 23 - - -
24/05:00pm - - - - - ESE 33 44 18 24 - - -
24/04:30pm - - - - - E 22 32 12 17 - - -
24/04:00pm - - - - - E 20 28 11 15 - - -
24/03:30pm - - - - - E 20 32 11 17 - - -
24/03:00pm - - - - - E 20 26 11 14 - - -
24/02:30pm - - - - - E 24 35 13 19 - - -
24/02:00pm - - - - - SE 28 33 15 18 - - -
24/01:30pm - - - - - SE 26 32 14 17 - - -
24/01:00pm - - - - - SE 30 35 16 19 - - -
24/12:30pm - - - - - SE 28 35 15 19 - - -
24/12:00pm - - - - - SE 28 33 15 18 - - -
24/11:30am - - - - - ESE 26 33 14 18 - - -
24/11:00am - - - - - ESE 20 26 11 14 - - -
24/10:30am - - - - - E 26 39 14 21 - - -
24/10:00am - - - - - SSE 17 26 9 14 - - -
24/09:30am - - - - - SE 22 32 12 17 - - -
24/09:00am - - - - - SE 22 30 12 16 - - -
24/08:30am - - - - - SSE 19 24 10 13 - - -
24/08:00am - - - - - SE 22 28 12 15 - - -
24/07:30am - - - - - SE 22 28 12 15 - - -
24/07:00am - - - - - ESE 26 33 14 18 - - -
24/06:30am - - - - - ESE 26 35 14 19 - - -
24/06:00am - - - - - SE 24 33 13 18 - - -
24/05:30am - - - - - SSE 20 35 11 19 - - -
24/05:00am - - - - - SE 24 30 13 16 - - -
24/04:30am - - - - - ESE 28 35 15 19 - - -
24/04:00am - - - - - ESE 26 37 14 20 - - -
24/03:30am - - - - - S 19 24 10 13 - - -
24/03:00am - - - - - SSE 24 32 13 17 - - -
24/02:30am - - - - - SSE 22 30 12 16 - - -
24/02:00am - - - - - SSE 26 35 14 19 - - -
24/01:30am - - - - - S 26 33 14 18 - - -
24/01:00am - - - - - S 22 30 12 16 - - -
24/12:30am - - - - - SSE 22 28 12 15 - - -
24/12:00am - - - - - SSE 26 39 14 21 - - -
 
Date/Time
EST
Temp
°C
App
Temp
°C
Dew
Point
°C
Rel
Hum
%
Delta-T
°C
Wind Press
QNH
hPa
Press
MSL
hPa
Rain since
9am
mm
Dir  Spd
km/h
Gust
km/h
Spd
kts
Gust
kts
23/11:30pm - - - - - S 22 30 12 16 - - -
23/11:00pm - - - - - S 15 22 8 12 - - -
23/10:30pm - - - - - S 15 22 8 12 - - -
23/10:00pm - - - - - SSW 15 22 8 12 - - -
23/09:30pm - - - - - SSW 17 26 9 14 - - -
23/09:00pm - - - - - S 15 19 8 10 - - -
23/08:30pm - - - - - S 20 26 11 14 - - -
23/08:00pm - - - - - S 15 19 8 10 - - -
23/07:30pm - - - - - SSW 17 24 9 13 - - -
23/07:00pm - - - - - SSW 15 24 8 13 - - -
23/06:30pm - - - - - SSW 17 28 9 15 - - -
23/06:00pm - - - - - SSW 24 33 13 18 - - -
23/05:30pm - - - - - SSW 26 43 14 23 - - -
23/05:00pm - - - - - SSW 22 35 12 19 - - -
23/04:30pm - - - - - SSW 20 32 11 17 - - -
23/04:00pm - - - - - SSW 20 28 11 15 - - -
23/03:30pm - - - - - SSW 20 32 11 17 - - -
23/03:00pm - - - - - SSW 26 33 14 18 - - -
23/02:30pm - - - - - SSW 26 41 14 22 - - -
23/02:00pm - - - - - SSW 24 35 13 19 - - -
23/01:30pm - - - - - SSW 28 35 15 19 - - -
23/01:00pm - - - - - SSW 26 37 14 20 - - -
23/12:30pm - - - - - SSW 24 35 13 19 - - -
23/12:00pm - - - - - SSW 26 35 14 19 - - -
23/11:30am - - - - - SSW 28 41 15 22 - - -
23/11:00am - - - - - SSW 22 33 12 18 - - -
23/10:30am - - - - - SW 19 32 10 17 - - -
23/10:00am - - - - - W 15 20 8 11 - - -
23/09:30am - - - - - WNW 13 19 7 10 - - -
23/09:00am - - - - - WNW 13 19 7 10 - - -
23/08:30am - - - - - WNW 13 20 7 11 - - -
23/08:00am - - - - - W 13 20 7 11 - - -
23/07:30am - - - - - WNW 11 17 6 9 - - -
23/07:00am - - - - - WNW 11 15 6 8 - - -
23/06:30am - - - - - WNW 13 19 7 10 - - -
23/06:00am - - - - - W 15 20 8 11 - - -
23/05:30am - - - - - W 13 19 7 10 - - -
23/05:00am - - - - - W 15 20 8 11 - - -
23/04:30am - - - - - W 15 22 8 12 - - -
23/04:00am - - - - - WNW 13 19 7 10 - - -
23/03:30am - - - - - WNW 13 17 7 9 - - -
23/03:00am - - - - - WNW 9 15 5 8 - - -
23/02:30am - - - - - WNW 9 13 5 7 - - -
23/02:00am - - - - - WNW 9 13 5 7 - - -
23/01:30am - - - - - WNW 6 9 3 5 - - -
23/01:00am - - - - - WNW 7 9 4 5 - - -
23/12:30am - - - - - W 7 9 4 5 - - -
23/12:00am - - - - - WNW 9 13 5 7 - - -
 
Date/Time
EST
Temp
°C
App
Temp
°C
Dew
Point
°C
Rel
Hum
%
Delta-T
°C
Wind Press
QNH
hPa
Press
MSL
hPa
Rain since
9am
mm
Dir  Spd
km/h
Gust
km/h
Spd
kts
Gust
kts
22/11:30pm - - - - - W 13 15 7 8 - - -
22/11:00pm - - - - - W 13 17 7 9 - - -
22/10:30pm - - - - - W 15 19 8 10 - - -
22/10:00pm - - - - - W 15 20 8 11 - - -
22/09:30pm - - - - - W 15 24 8 13 - - -
22/09:00pm - - - - - W 15 20 8 11 - - -
22/08:30pm - - - - - WNW 9 13 5 7 - - -
22/08:00pm - - - - - WNW 9 13 5 7 - - -
22/07:30pm - - - - - W 11 15 6 8 - - -
22/07:00pm - - - - - W 13 17 7 9 - - -
22/06:30pm - - - - - W 15 20 8 11 - - -
22/06:00pm - - - - - W 11 13 6 7 - - -
22/05:30pm - - - - - WNW 7 11 4 6 - - -
22/05:00pm - - - - - WNW 11 13 6 7 - - -
22/04:30pm - - - - - WNW 9 13 5 7 - - -
22/04:00pm - - - - - W 15 20 8 11 - - -
22/03:30pm - - - - - W 13 17 7 9 - - -
22/03:00pm - - - - - WNW 13 20 7 11 - - -
22/02:30pm - - - - - WSW 20 33 11 18 - - -
22/02:00pm - - - - - W 7 17 4 9 - - -
22/01:30pm - - - - - W 7 11 4 6 - - -
22/01:00pm - - - - - WSW 17 30 9 16 - - -
22/12:30pm - - - - - NNW 13 19 7 10 - - -
22/12:00pm - - - - - NW 7 11 4 6 - - -
22/11:30am - - - - - NW 9 13 5 7 - - -
22/11:00am - - - - - WNW 6 9 3 5 - - -
22/10:30am - - - - - NW 6 9 3 5 - - -
22/10:00am - - - - - NW 7 13 4 7 - - -
22/09:30am - - - - - WNW 7 11 4 6 - - -
22/09:00am - - - - - WNW 7 13 4 7 - - -
22/08:30am - - - - - W 11 13 6 7 - - -
22/08:00am - - - - - WNW 7 13 4 7 - - -
22/07:30am - - - - - WNW 11 15 6 8 - - -
22/07:00am - - - - - WNW 11 15 6 8 - - -
22/06:30am - - - - - WNW 13 19 7 10 - - -
22/06:00am - - - - - WNW 17 20 9 11 - - -
22/05:30am - - - - - WNW 11 17 6 9 - - -
22/05:00am - - - - - WNW 11 15 6 8 - - -
22/04:30am - - - - - WNW 11 15 6 8 - - -
22/04:00am - - - - - WNW 13 17 7 9 - - -
22/03:30am - - - - - WNW 11 13 6 7 - - -
22/03:00am - - - - - WNW 11 13 6 7 - - -
22/02:30am - - - - - WNW 9 13 5 7 - - -
22/02:00am - - - - - W 9 11 5 6 - - -
22/01:30am - - - - - WNW 7 11 4 6 - - -
22/01:00am - - - - - W 7 9 4 5 - - -
22/12:30am - - - - - W 7 9 4 5 - - -
22/12:00am - - - - - WSW 7 9 4 5 - - -
 
Date/Time
EST
Temp
°C
App
Temp
°C
Dew
Point
°C
Rel
Hum
%
Delta-T
°C
Wind Press
QNH
hPa
Press
MSL
hPa
Rain since
9am
mm
Dir  Spd
km/h
Gust
km/h
Spd
kts
Gust
kts
21/11:30pm - - - - - WSW 7 9 4 5 - - -
21/11:00pm - - - - - W 4 7 2 4 - - -
21/10:30pm - - - - - CALM 0 0 0 0 - - -

Latest Capital City Observations: Canberra | Sydney | Melbourne | Brisbane | Adelaide | Perth | Hobart | Darwin

Other Formats:

Comma delimited format used in spreadsheet applications
http://www.bom.gov.au/fwo/IDN60901/IDN60901.94780.axf

JavaScript Object Notation format (JSON) in row-major order
http://www.bom.gov.au/fwo/IDN60901/IDN60901.94780.json